Time;durP1;ratioP1;P1;durP2;ratioP2;P2;SDS_P1;SDS_P2;PMS_P1;PMS_P2;Temp;Humidity;BMP_temperature;BMP_pressure;BME280_temperature;BME280_humidity;BME280_pressure;Samples;Min_cycle;Max_cycle;Signal;HPM_P1;HPM_P2
2023/12/31 00:04:45;;;;;;;0.55;0.50;;;20.40;46.70;;;;;;10475348;28;20080;-46
2023/12/31 00:09:47;;;;;;;0.60;0.50;;;20.40;46.70;;;;;;10472962;28;20147;-46
2023/12/31 00:14:48;;;;;;;0.95;0.70;;;20.30;46.60;;;;;;10470982;28;20128;-47
2023/12/31 00:19:51;;;;;;;0.73;0.60;;;20.40;46.50;;;;;;10475485;28;20051;-48
2023/12/31 00:24:54;;;;;;;1.08;0.70;;;20.30;46.60;;;;;;10466559;28;20602;-46
2023/12/31 00:29:56;;;;;;;0.82;0.70;;;20.30;46.50;;;;;;10477309;28;20052;-47
2023/12/31 00:34:59;;;;;;;0.65;0.60;;;20.30;46.70;;;;;;10479857;28;20050;-46
2023/12/31 00:40:00;;;;;;;0.80;0.70;;;20.30;46.60;;;;;;10476181;28;20504;-45
2023/12/31 00:45:02;;;;;;;0.60;0.60;;;20.20;46.60;;;;;;10477342;28;20505;-46
2023/12/31 00:50:06;;;;;;;0.70;0.65;;;20.20;46.60;;;;;;10469203;28;20469;-46
2023/12/31 00:55:08;;;;;;;0.60;0.60;;;20.20;46.60;;;;;;10471393;28;20140;-47
2023/12/31 01:00:11;;;;;;;0.52;0.52;;;20.10;46.70;;;;;;10475851;28;20052;-48
2023/12/31 01:05:14;;;;;;;1.15;0.77;;;20.10;46.50;;;;;;10472232;28;20211;-45
2023/12/31 01:10:16;;;;;;;0.50;0.50;;;20.10;46.50;;;;;;10473585;28;20505;-46
2023/12/31 01:15:18;;;;;;;0.70;0.63;;;20.00;46.70;;;;;;10471472;28;20084;-46
2023/12/31 01:20:21;;;;;;;0.70;0.63;;;20.10;46.50;;;;;;10475950;28;20049;-46
2023/12/31 01:25:22;;;;;;;0.60;0.57;;;20.00;46.80;;;;;;10473834;28;20167;-45
2023/12/31 01:30:24;;;;;;;0.52;0.52;;;20.10;46.60;;;;;;10467305;28;20135;-46
2023/12/31 01:35:27;;;;;;;0.68;0.60;;;20.10;46.60;;;;;;10466737;28;20056;-46
2023/12/31 01:40:29;;;;;;;0.70;0.70;;;20.00;46.80;;;;;;10466813;28;20059;-45
2023/12/31 01:45:30;;;;;;;0.60;0.60;;;19.90;46.90;;;;;;10473477;28;20059;-46
2023/12/31 01:50:33;;;;;;;0.70;0.57;;;19.90;46.80;;;;;;10464173;28;20422;-46
2023/12/31 01:55:35;;;;;;;0.82;0.60;;;19.90;46.90;;;;;;10469356;28;20087;-47
2023/12/31 02:00:36;;;;;;;0.77;0.60;;;19.90;46.70;;;;;;10466654;28;20049;-46
2023/12/31 02:05:39;;;;;;;1.05;0.70;;;19.90;46.90;;;;;;10466556;28;20570;-49
2023/12/31 02:10:41;;;;;;;0.50;0.50;;;19.80;46.90;;;;;;10462818;28;20493;-49
2023/12/31 02:15:43;;;;;;;0.77;0.55;;;19.70;47.10;;;;;;10462334;28;20055;-45
2023/12/31 02:20:45;;;;;;;0.73;0.52;;;19.60;47.10;;;;;;10468780;28;20045;-45
2023/12/31 02:25:48;;;;;;;0.70;0.63;;;19.50;47.30;;;;;;10466705;28;20053;-45
2023/12/31 02:30:51;;;;;;;0.85;0.60;;;19.60;47.30;;;;;;10467034;28;20136;-49
2023/12/31 02:35:53;;;;;;;0.60;0.60;;;19.60;47.30;;;;;;10481618;28;20581;-45
2023/12/31 02:40:54;;;;;;;0.80;0.65;;;19.60;47.30;;;;;;10469389;28;20055;-48
2023/12/31 02:45:57;;;;;;;0.90;0.55;;;19.50;47.20;;;;;;10468209;28;20141;-46
2023/12/31 02:50:59;;;;;;;0.80;0.80;;;19.60;47.10;;;;;;10471403;28;20049;-47
2023/12/31 02:56:01;;;;;;;0.70;0.63;;;19.50;47.20;;;;;;10477235;28;20049;-45
2023/12/31 03:01:04;;;;;;;0.60;0.60;;;19.40;47.40;;;;;;10478809;28;20147;-48
2023/12/31 03:06:06;;;;;;;0.93;0.50;;;19.50;47.20;;;;;;10473381;28;20069;-46
2023/12/31 03:11:08;;;;;;;1.02;0.63;;;19.40;47.20;;;;;;10470217;28;20427;-46
2023/12/31 03:16:11;;;;;;;0.63;0.60;;;19.40;47.20;;;;;;10476160;28;20079;-46
2023/12/31 03:21:15;;;;;;;0.68;0.60;;;19.40;47.30;;;;;;10468254;28;20041;-46
2023/12/31 03:26:16;;;;;;;0.95;0.70;;;19.30;47.40;;;;;;10474421;28;20053;-46
2023/12/31 03:31:20;;;;;;;0.60;0.60;;;19.30;47.50;;;;;;10470509;28;20461;-45
2023/12/31 03:36:24;;;;;;;0.77;0.60;;;19.30;47.20;;;;;;10475667;28;20155;-46
2023/12/31 03:41:25;;;;;;;0.60;0.50;;;19.30;47.30;;;;;;10477671;28;20102;-46
2023/12/31 03:46:28;;;;;;;0.82;0.60;;;19.20;47.50;;;;;;10470836;28;20139;-46
2023/12/31 03:51:30;;;;;;;0.93;0.80;;;19.20;47.50;;;;;;10469022;28;20569;-47
2023/12/31 03:56:32;;;;;;;0.60;0.50;;;19.20;47.50;;;;;;10467596;28;20446;-47
2023/12/31 04:01:40;;;;;;;1.52;0.60;;;19.20;47.50;;;;;;10469648;28;20067;-46
2023/12/31 04:06:41;;;;;;;1.10;0.60;;;19.20;47.40;;;;;;10479552;28;20159;-45
2023/12/31 04:11:43;;;;;;;1.35;0.70;;;19.70;45.90;;;;;;10467274;28;20114;-45
2023/12/31 04:16:46;;;;;;;0.82;0.60;;;19.90;45.80;;;;;;10472312;28;20055;-46
2023/12/31 04:21:47;;;;;;;0.60;0.60;;;19.70;46.90;;;;;;10469984;28;20055;-45
2023/12/31 04:26:49;;;;;;;0.60;0.52;;;19.50;47.60;;;;;;10464749;28;20063;-46
2023/12/31 04:31:55;;;;;;;0.50;0.50;;;19.50;47.90;;;;;;10477539;28;20041;-45
2023/12/31 04:36:56;;;;;;;1.67;0.60;;;19.70;47.50;;;;;;10472544;28;20059;-45
2023/12/31 04:41:58;;;;;;;0.80;0.60;;;19.90;47.30;;;;;;10469727;28;20040;-46
2023/12/31 04:47:01;;;;;;;0.73;0.60;;;20.00;47.90;;;;;;10468747;28;20049;-47
2023/12/31 04:52:03;;;;;;;0.85;0.50;;;20.20;47.20;;;;;;10472733;28;20537;-49
2023/12/31 04:57:05;;;;;;;0.93;0.80;;;20.40;46.70;;;;;;10470122;28;20048;-45
2023/12/31 05:02:07;;;;;;;0.60;0.60;;;20.50;46.80;;;;;;10464529;28;20406;-45
2023/12/31 05:07:11;;;;;;;0.60;0.60;;;20.50;47.30;;;;;;10473264;28;20052;-48
2023/12/31 05:12:12;;;;;;;0.88;0.60;;;20.60;46.70;;;;;;10470592;28;20099;-48
2023/12/31 05:17:15;;;;;;;0.73;0.57;;;20.80;46.40;;;;;;10468425;28;20049;-46
2023/12/31 05:22:17;;;;;;;0.65;0.60;;;20.70;46.40;;;;;;10470147;28;20578;-46
2023/12/31 05:27:19;;;;;;;1.05;0.60;;;20.90;46.10;;;;;;10462349;28;20171;-47
2023/12/31 05:32:22;;;;;;;0.60;0.60;;;20.80;46.10;;;;;;10464332;28;20045;-46
2023/12/31 05:37:24;;;;;;;0.50;0.50;;;20.90;46.10;;;;;;10467421;28;20131;-46
2023/12/31 05:42:27;;;;;;;0.60;0.60;;;20.90;46.20;;;;;;10471288;28;20135;-47
2023/12/31 05:47:30;;;;;;;0.73;0.63;;;20.90;46.30;;;;;;10474350;28;20654;-48
2023/12/31 05:52:32;;;;;;;0.60;0.60;;;21.00;46.30;;;;;;10461915;28;20395;-48
2023/12/31 05:57:33;;;;;;;0.60;0.60;;;21.00;46.20;;;;;;10470061;28;20164;-46
2023/12/31 06:02:36;;;;;;;1.05;0.55;;;21.10;46.20;;;;;;10478270;28;20047;-46
2023/12/31 06:07:38;;;;;;;0.50;0.50;;;21.00;46.20;;;;;;10460477;28;20048;-47
2023/12/31 06:12:47;;;;;;;0.60;0.57;;;21.10;46.10;;;;;;10471423;28;20047;-46
2023/12/31 06:17:50;;;;;;;0.65;0.50;;;21.10;46.20;;;;;;10472112;28;20491;-51
2023/12/31 06:22:51;;;;;;;0.50;0.50;;;21.10;46.10;;;;;;10478122;28;20072;-46
2023/12/31 06:27:54;;;;;;;0.50;0.50;;;21.20;46.10;;;;;;10483114;28;20139;-49
2023/12/31 06:32:57;;;;;;;0.80;0.60;;;21.10;46.10;;;;;;10478479;28;20128;-46
2023/12/31 06:37:59;;;;;;;0.65;0.60;;;21.20;46.20;;;;;;10472672;28;20132;-48
2023/12/31 06:43:00;;;;;;;0.40;0.40;;;21.20;46.00;;;;;;10472878;28;20075;-46
2023/12/31 06:48:04;;;;;;;0.50;0.50;;;21.30;46.00;;;;;;10481587;28;20151;-47
2023/12/31 06:53:05;;;;;;;0.57;0.45;;;21.30;46.10;;;;;;10475788;28;20044;-46
2023/12/31 06:58:07;;;;;;;1.00;0.70;;;21.30;46.00;;;;;;10472158;28;20426;-46
2023/12/31 07:03:10;;;;;;;0.60;0.60;;;21.40;45.90;;;;;;10476909;28;20135;-47
2023/12/31 07:08:12;;;;;;;0.93;0.70;;;21.40;46.00;;;;;;10471914;28;20064;-46
2023/12/31 07:13:14;;;;;;;0.93;0.63;;;21.40;46.00;;;;;;10476083;28;20037;-48
2023/12/31 07:18:17;;;;;;;0.80;0.60;;;21.50;45.90;;;;;;10471821;28;20053;-46
2023/12/31 07:23:19;;;;;;;1.02;0.68;;;21.50;45.90;;;;;;10470366;28;20072;-49
2023/12/31 07:28:20;;;;;;;0.70;0.50;;;21.50;45.90;;;;;;10472997;28;20136;-46
2023/12/31 07:33:23;;;;;;;0.95;0.63;;;21.50;45.90;;;;;;10473641;28;20048;-48
2023/12/31 07:38:25;;;;;;;1.15;0.60;;;21.50;45.80;;;;;;10479555;28;20048;-48
2023/12/31 07:43:26;;;;;;;0.50;0.50;;;21.60;45.80;;;;;;10477713;28;20135;-48
2023/12/31 07:48:29;;;;;;;0.60;0.50;;;21.60;45.80;;;;;;10468737;28;20052;-46
2023/12/31 07:53:32;;;;;;;0.77;0.57;;;21.60;45.70;;;;;;10472002;28;20131;-47
2023/12/31 07:58:34;;;;;;;0.47;0.47;;;21.60;45.60;;;;;;10469839;28;20132;-46
2023/12/31 08:03:38;;;;;;;0.75;0.60;;;21.80;45.50;;;;;;10476445;28;20525;-49
2023/12/31 08:08:40;;;;;;;0.60;0.60;;;21.70;45.60;;;;;;10470831;28;20094;-48
2023/12/31 08:13:42;;;;;;;0.55;0.55;;;21.70;45.60;;;;;;10473349;28;20053;-45
2023/12/31 08:18:45;;;;;;;0.50;0.43;;;21.60;45.70;;;;;;10477069;28;20044;-47
2023/12/31 08:23:46;;;;;;;0.95;0.70;;;21.60;45.70;;;;;;10470543;28;20041;-49
2023/12/31 08:28:48;;;;;;;0.73;0.50;;;21.70;45.60;;;;;;10471007;28;20135;-46
2023/12/31 08:33:51;;;;;;;0.52;0.52;;;21.70;45.80;;;;;;10471530;28;20045;-46
2023/12/31 08:38:52;;;;;;;0.68;0.60;;;21.80;45.50;;;;;;10471777;28;20139;-46
2023/12/31 08:43:54;;;;;;;0.75;0.57;;;21.80;45.60;;;;;;10476292;28;20045;-46
2023/12/31 08:48:57;;;;;;;0.50;0.50;;;21.80;45.60;;;;;;10474186;28;20144;-47
2023/12/31 08:53:58;;;;;;;0.60;0.60;;;21.80;45.60;;;;;;10470224;28;20160;-46
2023/12/31 08:59:00;;;;;;;0.43;0.40;;;21.80;45.60;;;;;;10469770;28;20131;-48
2023/12/31 09:04:03;;;;;;;0.82;0.50;;;21.90;45.50;;;;;;10463989;28;20048;-50
2023/12/31 09:09:05;;;;;;;0.50;0.50;;;21.90;45.50;;;;;;10477445;28;20041;-49
2023/12/31 09:14:07;;;;;;;0.55;0.50;;;21.90;45.50;;;;;;10478487;28;20061;-48
2023/12/31 09:19:10;;;;;;;0.45;0.40;;;21.90;45.60;;;;;;10466966;28;20056;-49
2023/12/31 09:24:11;;;;;;;0.70;0.55;;;22.00;45.40;;;;;;10475367;28;20055;-46
2023/12/31 09:29:14;;;;;;;0.60;0.60;;;22.00;45.40;;;;;;10466818;28;20051;-49
2023/12/31 09:34:17;;;;;;;0.73;0.45;;;22.00;45.40;;;;;;10476936;28;20080;-46
2023/12/31 09:39:18;;;;;;;0.80;0.60;;;21.90;45.50;;;;;;10468587;28;20078;-45
2023/12/31 09:44:20;;;;;;;1.48;0.60;;;21.90;45.40;;;;;;10475637;28;20073;-45
2023/12/31 09:49:23;;;;;;;0.50;0.50;;;22.00;45.40;;;;;;10479023;28;20048;-49
2023/12/31 09:54:25;;;;;;;0.52;0.50;;;22.00;45.40;;;;;;10477812;28;20044;-47
2023/12/31 09:59:27;;;;;;;0.60;0.50;;;22.00;45.50;;;;;;10490604;28;20062;-51
2023/12/31 10:04:30;;;;;;;0.93;0.60;;;22.00;45.70;;;;;;10474460;28;20048;-47
2023/12/31 10:09:31;;;;;;;0.60;0.60;;;22.10;45.50;;;;;;10474365;28;20074;-46
2023/12/31 10:14:33;;;;;;;0.45;0.45;;;22.10;45.30;;;;;;10478462;28;20083;-49
2023/12/31 10:19:36;;;;;;;0.60;0.50;;;22.10;45.40;;;;;;10480079;28;20059;-46
2023/12/31 10:24:37;;;;;;;0.70;0.50;;;22.20;45.30;;;;;;10473647;28;20509;-51
2023/12/31 10:29:39;;;;;;;0.55;0.50;;;22.20;45.20;;;;;;10476880;28;20512;-49
2023/12/31 10:34:42;;;;;;;0.40;0.40;;;22.10;45.20;;;;;;10479154;28;20044;-47
2023/12/31 10:39:43;;;;;;;0.45;0.45;;;22.20;45.40;;;;;;10471183;28;20136;-46
2023/12/31 10:44:45;;;;;;;0.40;0.40;;;22.10;45.30;;;;;;10479962;28;20131;-47
2023/12/31 10:49:48;;;;;;;0.77;0.60;;;22.20;45.30;;;;;;10479712;28;20136;-49
2023/12/31 10:54:51;;;;;;;0.50;0.50;;;22.20;45.30;;;;;;10475223;28;20041;-46
2023/12/31 10:59:53;;;;;;;0.60;0.50;;;22.30;45.20;;;;;;10477374;28;20060;-46
2023/12/31 11:04:56;;;;;;;0.65;0.55;;;22.20;45.30;;;;;;10476822;28;20126;-45
2023/12/31 11:09:58;;;;;;;0.45;0.45;;;22.20;45.20;;;;;;10475878;28;20143;-49
2023/12/31 11:15:02;;;;;;;0.70;0.50;;;22.30;45.10;;;;;;10469407;28;20052;-46
2023/12/31 11:20:26;;;;;;;0.50;0.50;;;22.40;45.10;;;;;;10470807;28;20498;-46
2023/12/31 11:25:28;;;;;;;0.52;0.50;;;22.40;45.10;;;;;;10472601;28;20132;-49
2023/12/31 11:30:46;;;;;;;0.40;0.40;;;22.40;45.20;;;;;;10479749;28;20148;-49
2023/12/31 11:35:51;;;;;;;0.60;0.60;;;22.40;45.00;;;;;;10467489;28;20060;-45
2023/12/31 11:40:53;;;;;;;0.55;0.52;;;22.40;45.00;;;;;;10473065;28;20063;-47
2023/12/31 11:45:55;;;;;;;0.65;0.47;;;22.50;45.00;;;;;;10468238;28;20076;-49
2023/12/31 11:51:00;;;;;;;0.52;0.52;;;22.40;45.10;;;;;;10465690;28;20052;-48
2023/12/31 11:56:02;;;;;;;0.63;0.60;;;22.50;45.00;;;;;;10481715;28;20044;-46
2023/12/31 12:01:04;;;;;;;0.80;0.50;;;22.40;45.10;;;;;;10469231;28;20094;-48
2023/12/31 12:06:07;;;;;;;0.50;0.50;;;22.40;45.20;;;;;;10470195;28;20076;-46
2023/12/31 12:11:10;;;;;;;0.40;0.40;;;22.50;45.00;;;;;;10472976;28;20159;-45
2023/12/31 12:16:13;;;;;;;0.70;0.47;;;22.50;45.20;;;;;;10473138;28;20051;-48
2023/12/31 12:21:16;;;;;;;0.80;0.50;;;22.50;45.20;;;;;;10467447;28;20048;-47
2023/12/31 12:26:18;;;;;;;0.40;0.40;;;22.50;45.20;;;;;;10461213;28;20055;-46
2023/12/31 12:31:19;;;;;;;0.82;0.60;;;22.50;45.20;;;;;;10467437;28;20155;-48
2023/12/31 12:36:22;;;;;;;0.47;0.40;;;22.50;45.30;;;;;;10475385;28;20128;-46
2023/12/31 12:41:24;;;;;;;0.70;0.60;;;22.50;45.20;;;;;;10472548;28;20049;-49
2023/12/31 12:46:27;;;;;;;0.63;0.50;;;22.50;45.00;;;;;;10472558;28;20128;-46
2023/12/31 12:51:30;;;;;;;0.40;0.40;;;22.50;45.20;;;;;;10464236;28;20414;-46
2023/12/31 12:56:32;;;;;;;1.02;0.50;;;22.60;44.90;;;;;;10467732;28;20132;-46
2023/12/31 13:01:33;;;;;;;0.63;0.50;;;22.60;45.10;;;;;;10473906;28;20057;-46
2023/12/31 13:06:36;;;;;;;0.38;0.38;;;22.70;45.00;;;;;;10472631;28;20071;-47
2023/12/31 13:11:38;;;;;;;0.47;0.47;;;22.50;45.70;;;;;;10467969;28;20135;-48
2023/12/31 13:16:40;;;;;;;0.52;0.50;;;22.60;45.10;;;;;;10470181;28;20136;-46
2023/12/31 13:21:43;;;;;;;0.40;0.40;;;22.60;45.10;;;;;;10472984;28;20087;-46
2023/12/31 13:26:44;;;;;;;0.45;0.40;;;22.70;45.10;;;;;;10475445;28;20139;-48
2023/12/31 13:31:46;;;;;;;0.68;0.50;;;22.70;45.00;;;;;;10473363;28;20087;-47
2023/12/31 13:36:50;;;;;;;0.35;0.35;;;22.70;45.10;;;;;;10468071;28;20129;-48
2023/12/31 13:41:52;;;;;;;0.60;0.50;;;22.70;45.10;;;;;;10468928;28;20044;-47
2023/12/31 13:46:56;;;;;;;0.47;0.47;;;22.70;45.00;;;;;;10472513;28;20047;-46
2023/12/31 13:51:58;;;;;;;0.90;0.40;;;22.70;45.00;;;;;;10473343;28;20140;-45
2023/12/31 13:57:04;;;;;;;0.50;0.45;;;22.70;45.00;;;;;;10463255;28;20582;-46
2023/12/31 14:02:05;;;;;;;0.50;0.50;;;22.90;44.80;;;;;;10470701;28;20044;-50
2023/12/31 14:07:08;;;;;;;0.60;0.60;;;22.80;44.80;;;;;;10465660;28;20036;-48
2023/12/31 14:12:14;;;;;;;0.70;0.60;;;22.80;44.90;;;;;;10470177;28;20087;-48
2023/12/31 14:17:16;;;;;;;0.73;0.57;;;22.80;44.70;;;;;;10473867;28;20554;-46
2023/12/31 14:22:19;;;;;;;1.52;1.23;;;22.70;45.30;;;;;;10463349;28;20076;-48
2023/12/31 14:27:21;;;;;;;5.03;1.88;;;22.60;46.10;;;;;;10456429;28;20140;-51
2023/12/31 14:32:22;;;;;;;14.80;4.55;;;22.80;45.30;;;;;;10470203;28;20465;-47
2023/12/31 14:37:25;;;;;;;10.73;5.72;;;22.70;47.00;;;;;;10470799;28;20140;-45
2023/12/31 14:42:27;;;;;;;6.03;4.63;;;23.20;46.50;;;;;;10469999;28;20132;-49
2023/12/31 14:47:28;;;;;;;3.88;3.40;;;23.30;44.30;;;;;;10469089;28;20045;-46
2023/12/31 14:52:31;;;;;;;4.75;3.65;;;23.20;43.10;;;;;;10468475;28;20059;-45
2023/12/31 14:57:33;;;;;;;11.55;4.57;;;23.00;43.60;;;;;;10475489;28;20051;-49
2023/12/31 15:02:35;;;;;;;15.57;4.32;;;23.10;42.40;;;;;;10472383;28;20041;-45
2023/12/31 15:07:38;;;;;;;10.82;4.00;;;23.10;42.80;;;;;;10467491;28;20045;-48
2023/12/31 15:12:39;;;;;;;11.80;4.03;;;23.00;42.10;;;;;;10467653;28;20048;-46
2023/12/31 15:17:41;;;;;;;8.90;4.28;;;23.10;41.30;;;;;;10472298;28;20088;-50
2023/12/31 15:22:44;;;;;;;11.75;3.90;;;23.20;40.40;;;;;;10473147;28;20044;-51
2023/12/31 15:27:46;;;;;;;11.52;4.22;;;23.20;40.00;;;;;;10472413;28;20410;-47
2023/12/31 15:32:47;;;;;;;10.57;4.85;;;22.90;40.00;;;;;;10476040;28;20151;-48
2023/12/31 15:37:50;;;;;;;12.32;5.50;;;23.10;41.90;;;;;;10468677;28;20079;-45
2023/12/31 15:42:52;;;;;;;15.10;6.20;;;23.00;42.90;;;;;;10469454;28;20493;-46
2023/12/31 15:47:54;;;;;;;8.10;4.50;;;23.20;42.80;;;;;;10471417;28;20116;-48
2023/12/31 15:52:57;;;;;;;22.23;5.65;;;23.30;41.10;;;;;;10472219;28;20620;-46
2023/12/31 15:57:59;;;;;;;24.20;5.70;;;23.30;40.90;;;;;;10473863;28;20053;-45
2023/12/31 16:03:00;;;;;;;11.80;5.60;;;23.40;41.80;;;;;;10470489;28;20093;-46
2023/12/31 16:08:03;;;;;;;25.13;11.80;;;23.20;40.70;;;;;;10468167;28;20565;-46
2023/12/31 16:13:05;;;;;;;27.90;14.50;;;23.40;42.60;;;;;;10468167;28;20048;-48
2023/12/31 16:18:07;;;;;;;26.88;17.52;;;23.40;44.60;;;;;;10472248;28;20052;-45
2023/12/31 16:23:10;;;;;;;29.98;19.98;;;23.50;45.30;;;;;;10464690;28;20127;-46
2023/12/31 16:28:11;;;;;;;44.85;33.72;;;23.50;43.50;;;;;;10463187;28;20059;-45
2023/12/31 16:33:13;;;;;;;85.78;60.58;;;23.40;43.10;;;;;;10480830;28;20499;-45
2023/12/31 16:38:16;;;;;;;166.20;114.78;;;23.30;43.40;;;;;;10469573;28;20063;-46
2023/12/31 16:43:21;;;;;;;218.82;141.82;;;23.00;46.30;;;;;;10469024;28;20051;-47
2023/12/31 16:48:23;;;;;;;97.32;68.55;;;23.00;48.70;;;;;;10466785;28;20099;-45
2023/12/31 16:53:26;;;;;;;110.47;76.50;;;23.30;43.70;;;;;;10466137;28;20143;-46
2023/12/31 16:58:27;;;;;;;98.78;63.88;;;23.20;44.30;;;;;;10463972;28;20048;-46
2023/12/31 17:03:29;;;;;;;58.35;37.83;;;23.20;44.30;;;;;;10465244;28;20059;-48
2023/12/31 17:08:32;;;;;;;71.53;48.53;;;23.30;43.00;;;;;;10460354;28;20148;-46
2023/12/31 17:13:33;;;;;;;79.95;49.65;;;23.40;43.10;;;;;;10462800;28;20046;-50
2023/12/31 17:18:36;;;;;;;58.95;46.78;;;23.50;42.90;;;;;;10464522;28;20059;-50
2023/12/31 17:23:39;;;;;;;64.65;49.05;;;23.50;42.30;;;;;;10464641;28;20037;-47
2023/12/31 17:28:40;;;;;;;48.60;43.00;;;23.60;42.40;;;;;;10458699;28;20076;-46
2023/12/31 17:33:42;;;;;;;22.85;19.08;;;23.30;42.50;;;;;;10461129;28;20127;-46
2023/12/31 17:38:45;;;;;;;17.08;12.35;;;23.40;41.10;;;;;;10462570;28;20139;-45
2023/12/31 17:43:47;;;;;;;16.90;8.93;;;23.30;40.80;;;;;;10461380;28;20076;-47
2023/12/31 17:48:48;;;;;;;11.50;8.27;;;23.20;40.60;;;;;;10464851;28;20139;-47
2023/12/31 17:53:51;;;;;;;19.75;7.78;;;23.20;40.30;;;;;;10461759;28;20065;-48
2023/12/31 17:58:53;;;;;;;17.77;7.97;;;23.20;40.80;;;;;;10460481;28;20709;-46
2023/12/31 18:03:55;;;;;;;16.02;6.32;;;23.40;40.60;;;;;;10465249;28;20136;-46
2023/12/31 18:08:58;;;;;;;14.25;6.38;;;23.40;40.20;;;;;;10471254;28;20055;-46
2023/12/31 18:13:59;;;;;;;22.63;7.85;;;23.30;40.60;;;;;;10475067;28;20051;-50
2023/12/31 18:19:01;;;;;;;16.00;8.88;;;23.40;40.40;;;;;;10471532;28;20568;-48
2023/12/31 18:24:04;;;;;;;20.55;9.70;;;23.50;39.70;;;;;;10464003;28;20491;-50
2023/12/31 18:29:06;;;;;;;16.67;10.35;;;23.70;40.50;;;;;;10465483;28;20063;-49
2023/12/31 18:34:08;;;;;;;25.02;12.55;;;23.90;41.40;;;;;;10470563;28;20056;-50
2023/12/31 18:39:13;;;;;;;24.15;12.68;;;24.20;41.60;;;;;;10467585;28;20053;-51
2023/12/31 18:44:14;;;;;;;30.77;11.40;;;24.30;42.00;;;;;;10469066;28;20131;-48
2023/12/31 18:49:16;;;;;;;25.17;12.50;;;24.30;41.40;;;;;;10473210;28;20152;-48
2023/12/31 18:54:19;;;;;;;22.50;12.90;;;24.60;41.70;;;;;;10470004;28;20505;-48
2023/12/31 18:59:21;;;;;;;18.33;12.80;;;24.70;41.80;;;;;;10467633;28;20581;-50
2023/12/31 19:04:23;;;;;;;20.80;13.55;;;24.80;41.90;;;;;;10470274;28;20071;-54
2023/12/31 19:09:26;;;;;;;19.35;13.68;;;24.80;41.80;;;;;;10470866;28;20122;-51
2023/12/31 19:14:29;;;;;;;18.98;12.35;;;25.00;41.60;;;;;;10479734;28;20062;-50
2023/12/31 19:19:31;;;;;;;25.60;11.88;;;25.30;41.00;;;;;;10471967;28;20132;-53
2023/12/31 19:24:34;;;;;;;14.82;9.50;;;25.10;41.20;;;;;;10466826;28;20059;-52
2023/12/31 19:29:36;;;;;;;14.73;8.20;;;24.80;40.00;;;;;;10465546;28;20056;-50
2023/12/31 19:34:40;;;;;;;18.25;8.48;;;25.00;39.60;;;;;;10468450;28;20045;-51
2023/12/31 19:39:43;;;;;;;19.98;9.23;;;25.00;40.10;;;;;;10470482;28;20724;-49
2023/12/31 19:44:45;;;;;;;22.20;9.20;;;24.90;40.40;;;;;;10465072;28;20577;-48
2023/12/31 19:49:46;;;;;;;15.52;10.23;;;25.00;40.40;;;;;;10468561;28;20422;-48
2023/12/31 19:54:49;;;;;;;17.20;11.40;;;24.90;40.40;;;;;;10474205;28;20130;-52
2023/12/31 19:59:51;;;;;;;28.35;13.55;;;24.70;41.00;;;;;;10471255;28;20080;-49
2023/12/31 20:04:53;;;;;;;21.85;14.90;;;24.00;43.40;;;;;;10475660;28;20048;-47
2023/12/31 20:09:57;;;;;;;21.80;14.13;;;24.50;42.50;;;;;;10473789;28;20139;-49
2023/12/31 20:14:58;;;;;;;25.50;15.52;;;24.80;41.60;;;;;;10462396;28;20040;-51
2023/12/31 20:20:00;;;;;;;25.10;16.40;;;24.70;41.50;;;;;;10465067;28;20044;-48
2023/12/31 20:25:03;;;;;;;21.75;17.02;;;24.50;42.10;;;;;;10471307;28;20139;-50
2023/12/31 20:30:06;;;;;;;25.15;17.10;;;24.40;42.30;;;;;;10472796;28;20052;-47
2023/12/31 20:35:08;;;;;;;28.25;18.55;;;24.30;42.80;;;;;;10468620;28;20128;-48
2023/12/31 20:40:13;;;;;;;25.77;19.88;;;24.40;42.70;;;;;;10466308;28;20139;-47
2023/12/31 20:45:16;;;;;;;27.20;20.98;;;24.20;43.40;;;;;;10467131;28;20037;-50
2023/12/31 20:50:18;;;;;;;25.83;21.40;;;24.10;43.80;;;;;;10468123;28;20132;-46
2023/12/31 20:55:22;;;;;;;28.85;22.02;;;24.10;44.20;;;;;;10465889;28;20106;-49
2023/12/31 21:00:24;;;;;;;33.25;25.33;;;24.10;44.40;;;;;;10467099;28;20053;-49
2023/12/31 21:05:25;;;;;;;32.95;26.20;;;24.10;44.50;;;;;;10469898;28;20506;-50
2023/12/31 21:10:28;;;;;;;36.17;29.58;;;24.10;44.40;;;;;;10471033;28;20498;-47
2023/12/31 21:15:30;;;;;;;39.53;30.67;;;24.20;44.40;;;;;;10465280;28;20479;-51
2023/12/31 21:20:32;;;;;;;51.03;37.30;;;24.30;44.40;;;;;;10470400;28;20105;-50
2023/12/31 21:25:36;;;;;;;53.17;43.80;;;24.40;44.40;;;;;;10468169;28;20135;-46
2023/12/31 21:30:37;;;;;;;62.13;50.72;;;24.60;44.40;;;;;;10463095;28;20053;-47
2023/12/31 21:35:39;;;;;;;75.55;53.47;;;24.70;44.40;;;;;;10469194;28;20509;-51
2023/12/31 21:40:42;;;;;;;62.08;47.22;;;24.80;44.20;;;;;;10477695;28;20140;-50
2023/12/31 21:45:44;;;;;;;54.17;44.88;;;24.70;44.20;;;;;;10481869;28;20123;-49
2023/12/31 21:50:45;;;;;;;50.03;43.45;;;24.80;44.00;;;;;;10480283;28;20052;-49
2023/12/31 21:55:48;;;;;;;52.80;43.53;;;24.90;44.00;;;;;;10479879;28;20053;-51
2023/12/31 22:00:51;;;;;;;48.53;40.20;;;25.00;43.80;;;;;;10480275;28;20132;-49
2023/12/31 22:05:53;;;;;;;43.15;38.42;;;25.00;44.00;;;;;;10480228;28;20045;-52
2023/12/31 22:13:34;;;;;;;38.53;32.88;;;25.00;44.10;;;;;;10456269;27;20399;-49
2023/12/31 22:18:36;;;;;;;39.83;27.88;;;25.00;43.90;;;;;;10488140;28;20052;-48
2023/12/31 22:23:38;;;;;;;30.08;25.48;;;24.70;46.20;;;;;;10478449;28;20582;-46
2023/12/31 22:28:41;;;;;;;28.52;23.45;;;24.60;48.00;;;;;;10479111;28;20837;-50
2023/12/31 22:33:42;;;;;;;27.77;22.13;;;24.70;47.80;;;;;;10474725;28;20046;-46
2023/12/31 22:38:44;;;;;;;24.42;20.98;;;24.80;48.00;;;;;;10286151;28;20130;-47
2023/12/31 22:43:47;;;;;;;21.58;18.48;;;24.70;48.50;;;;;;10230795;28;20137;-48
2023/12/31 22:48:49;;;;;;;26.13;19.30;;;24.70;48.00;;;;;;10229552;28;20135;-48
2023/12/31 22:53:51;;;;;;;21.60;17.77;;;24.80;47.60;;;;;;10227117;28;20066;-48
2023/12/31 22:58:54;;;;;;;22.25;17.83;;;24.70;48.20;;;;;;10218464;28;20069;-52
2023/12/31 23:03:56;;;;;;;23.17;16.50;;;24.60;48.90;;;;;;10224072;28;20050;-48
2023/12/31 23:08:58;;;;;;;21.75;16.20;;;24.70;47.50;;;;;;10226907;28;20055;-48
2023/12/31 23:14:01;;;;;;;21.73;15.85;;;24.90;45.80;;;;;;10222683;28;20059;-47
2023/12/31 23:19:02;;;;;;;17.58;15.70;;;24.80;46.20;;;;;;10224409;28;20052;-50
2023/12/31 23:24:04;;;;;;;20.10;15.90;;;24.60;46.50;;;;;;10302708;28;20059;-48
2023/12/31 23:29:07;;;;;;;17.20;15.50;;;24.60;46.30;;;;;;10256959;28;20055;-52
2023/12/31 23:34:09;;;;;;;17.85;15.90;;;24.60;46.40;;;;;;10281954;28;20059;-47
2023/12/31 23:39:10;;;;;;;20.70;15.65;;;24.50;46.40;;;;;;10249458;28;20182;-48
2023/12/31 23:44:13;;;;;;;17.73;15.88;;;24.50;46.60;;;;;;10234165;28;20051;-46
2023/12/31 23:49:15;;;;;;;19.30;15.98;;;24.50;46.40;;;;;;10193854;28;20585;-47
2023/12/31 23:54:16;;;;;;;17.98;16.08;;;24.50;46.40;;;;;;10199113;28;20494;-47
2023/12/31 23:59:19;;;;;;;19.17;16.15;;;24.40;46.20;;;;;;10196307;28;20503;-48
